Atwood, Wisconsin
Current Conditions -  °F | °C
As of 12:35 AM on Monday 24 Nov 2014 (Local Time) from KMDZ Reporting Station
Light Rain Light Rain  
Wind Chill: 39°   Ceiling: 400
Heat Index: 39°   Visibility: 0.5mi
Dew Point: 39°   Wind: 0mph
Humidity: 100%   Direction: NA
Pressure: 29.12"   Gusts: NA
Location:  44.9782°N, 90.5368°W
Report Text: KMDZ 240635Z AUTO 00000KT 1/2SM -RA OVC004 04/04 A2912 RMK AO2 P0004 T00400040
Loading
Personal Weather Stations






























Interactive Weather Map New forecast layout! Learn more

10-Day Weather Forecast

Advertisements
Track Severe Weather on mobile